createdAt,value
2018-03-25T00:01:36.162Z,99420.44
2018-03-25T00:04:02.551Z,99432.41
2018-03-25T00:06:28.904Z,99442.47
2018-03-25T00:08:55.262Z,99446.90
2018-03-25T00:11:21.610Z,99446.46
2018-03-25T00:13:47.961Z,99446.77
2018-03-25T00:16:14.305Z,99454.20
2018-03-25T00:18:40.756Z,99451.28
2018-03-25T00:21:07.141Z,99444.17
2018-03-25T00:23:33.474Z,99452.12
2018-03-25T00:25:59.849Z,99447.80
2018-03-25T00:28:26.190Z,99444.30
2018-03-25T00:30:52.554Z,99437.33
2018-03-25T00:33:18.956Z,99439.41
2018-03-25T00:35:45.266Z,99446.52
2018-03-25T00:38:11.588Z,99445.37
2018-03-25T00:40:37.945Z,99444.98
2018-03-25T00:43:04.278Z,99439.95
2018-03-25T00:45:30.608Z,99434.69
2018-03-25T00:47:56.938Z,99448.19
2018-03-25T00:50:23.310Z,99443.75
2018-03-25T00:52:49.669Z,99449.42
2018-03-25T00:55:16.023Z,99450.41
2018-03-25T00:57:42.386Z,99452.89
2018-03-25T01:00:08.796Z,99450.98
2018-03-25T01:02:35.194Z,99452.15
2018-03-25T01:05:01.525Z,99455.33
2018-03-25T01:07:27.913Z,99446.58
2018-03-25T01:09:54.269Z,99448.07
2018-03-25T01:12:20.642Z,99456.73
2018-03-25T01:14:47.032Z,99445.28
2018-03-25T01:17:13.383Z,99447.31
2018-03-25T01:19:39.829Z,99443.22
2018-03-25T01:22:06.197Z,99453.80
2018-03-25T01:24:32.582Z,99460.17
2018-03-25T01:26:58.932Z,99456.98
2018-03-25T01:29:25.278Z,99460.40
2018-03-25T01:31:51.671Z,99460.91
2018-03-25T01:34:17.997Z,99465.86
2018-03-25T01:36:44.353Z,99457.20
2018-03-25T01:39:10.701Z,99465.56
2018-03-25T01:41:37.036Z,99461.46
2018-03-25T01:44:03.411Z,99471.99
2018-03-25T01:46:29.813Z,99467.56
2018-03-25T01:48:56.176Z,99469.31
2018-03-25T01:51:22.506Z,99469.25
2018-03-25T01:53:48.851Z,99470.56
2018-03-25T01:56:15.208Z,99463.55
2018-03-25T01:58:41.727Z,99462.57
2018-03-25T02:01:08.121Z,99466.77
2018-03-25T02:03:34.468Z,99464.96
2018-03-25T02:06:00.838Z,99465.28
2018-03-25T02:08:27.181Z,99467.75
2018-03-25T02:10:53.537Z,99466.83
2018-03-25T02:13:19.894Z,99472.97
2018-03-25T02:15:46.234Z,99469.86
2018-03-25T02:18:12.903Z,99472.53
2018-03-25T02:20:39.259Z,99471.91
2018-03-25T02:23:05.624Z,99480.20
2018-03-25T02:25:32.013Z,99475.68
2018-03-25T02:27:58.373Z,99481.56
2018-03-25T02:30:24.722Z,99490.75
2018-03-25T02:32:51.058Z,99497.87
2018-03-25T02:35:17.384Z,99501.02
2018-03-25T02:37:43.775Z,99501.77
2018-03-25T02:40:10.150Z,99509.81
2018-03-25T02:42:36.534Z,99509.22
2018-03-25T02:45:02.950Z,99508.14
2018-03-25T02:47:29.321Z,99508.53
2018-03-25T02:49:55.777Z,99506.28
2018-03-25T02:52:22.130Z,99508.34
2018-03-25T02:54:48.489Z,99506.52
2018-03-25T02:57:14.857Z,99508.45
2018-03-25T02:59:41.215Z,99506.84
2018-03-25T03:02:07.551Z,99507.92
2018-03-25T03:04:33.906Z,99501.78
2018-03-25T03:07:00.254Z,99506.72
2018-03-25T03:09:26.614Z,99504.91
2018-03-25T03:11:52.970Z,99515.09
2018-03-25T03:14:19.350Z,99518.73
2018-03-25T03:16:45.718Z,99521.81
2018-03-25T03:19:12.092Z,99526.74
2018-03-25T03:21:38.471Z,99525.75
2018-03-25T03:24:04.842Z,99529.66
2018-03-25T03:26:31.190Z,99530.55
2018-03-25T03:28:57.538Z,99519.56
2018-03-25T03:31:23.892Z,99518.56
2018-03-25T03:33:50.250Z,99516.70
2018-03-25T03:36:16.592Z,99517.12
2018-03-25T03:38:42.938Z,99516.67
2018-03-25T03:41:09.297Z,99518.98
2018-03-25T03:43:35.646Z,99530.20
2018-03-25T03:46:02.044Z,99535.41
2018-03-25T03:48:28.410Z,99532.49
2018-03-25T03:50:54.754Z,99535.90
2018-03-25T03:53:21.138Z,99547.78
2018-03-25T03:55:47.481Z,99551.70
2018-03-25T03:58:13.837Z,99551.64
2018-03-25T04:00:40.170Z,99554.67
2018-03-25T04:03:06.526Z,99562.59
2018-03-25T04:05:32.889Z,99563.55
2018-03-25T04:07:59.285Z,99568.53
2018-03-25T04:10:25.647Z,99564.14
2018-03-25T04:12:52.005Z,99564.83
2018-03-25T04:15:18.350Z,99556.83
2018-03-25T04:17:44.704Z,99562.16
2018-03-25T04:20:11.054Z,99562.92
2018-03-25T04:22:37.605Z,99569.72
2018-03-25T04:25:03.966Z,99574.79
2018-03-25T04:27:30.326Z,99579.08
2018-03-25T04:29:56.709Z,99576.72
2018-03-25T04:32:23.089Z,99585.89
2018-03-25T04:34:49.433Z,99591.53
2018-03-25T04:37:15.771Z,99595.44
2018-03-25T04:39:42.109Z,99594.14
2018-03-25T04:42:08.635Z,99598.05
2018-03-25T04:44:34.967Z,99605.25
2018-03-25T04:47:01.320Z,99615.21
2018-03-25T04:49:27.663Z,99610.95
2018-03-25T04:51:54.038Z,99610.37
2018-03-25T04:54:20.365Z,99612.09
2018-03-25T04:56:46.718Z,99609.91
2018-03-25T04:59:13.059Z,99609.59
2018-03-25T05:01:39.390Z,99620.59
2018-03-25T05:04:05.770Z,99619.77
2018-03-25T05:06:32.117Z,99619.14
2018-03-25T05:08:58.457Z,99624.91
2018-03-25T05:11:24.809Z,99617.70
2018-03-25T05:13:51.202Z,99619.37
2018-03-25T05:16:17.576Z,99617.08
2018-03-25T05:18:43.905Z,99621.97
2018-03-25T05:21:10.242Z,99623.11
2018-03-25T05:23:36.582Z,99621.35
2018-03-25T05:26:03.000Z,99629.28
2018-03-25T05:28:29.384Z,99636.22
2018-03-25T05:30:55.741Z,99636.00
2018-03-25T05:33:22.078Z,99626.27
2018-03-25T05:35:48.430Z,99625.70
2018-03-25T05:38:14.795Z,99630.72
2018-03-25T05:40:41.125Z,99633.25
2018-03-25T05:43:07.486Z,99632.03
2018-03-25T05:45:33.886Z,99626.78
2018-03-25T05:48:00.222Z,99623.72
2018-03-25T05:50:26.597Z,99637.50
2018-03-25T05:52:52.964Z,99642.82
2018-03-25T05:55:19.358Z,99645.80
2018-03-25T05:57:45.698Z,99650.37
2018-03-25T06:00:12.086Z,99650.96
2018-03-25T06:02:38.453Z,99637.69
2018-03-25T06:05:04.869Z,99633.16
2018-03-25T06:07:31.217Z,99641.66
2018-03-25T06:09:57.570Z,99645.44
2018-03-25T06:12:23.913Z,99659.13
2018-03-25T06:14:50.250Z,99662.05
2018-03-25T06:17:16.601Z,99660.44
2018-03-25T06:19:42.955Z,99667.55
2018-03-25T06:22:09.303Z,99673.27
2018-03-25T06:24:35.637Z,99679.72
2018-03-25T06:27:01.998Z,99685.66
2018-03-25T06:29:28.358Z,99682.05
2018-03-25T06:31:54.711Z,99684.48
2018-03-25T06:34:21.125Z,99687.03
2018-03-25T06:36:47.516Z,99688.59
2018-03-25T06:39:13.851Z,99689.34
2018-03-25T06:41:40.218Z,99690.13
2018-03-25T06:44:06.571Z,99696.34
2018-03-25T06:46:33.238Z,99694.63
2018-03-25T06:48:59.578Z,99701.74
2018-03-25T06:51:25.945Z,99709.43
2018-03-25T06:53:52.409Z,99714.56
2018-03-25T06:56:18.767Z,99717.30
2018-03-25T06:58:45.122Z,99717.50
2018-03-25T07:01:11.500Z,99719.66
2018-03-25T07:03:37.851Z,99723.34
2018-03-25T07:06:04.242Z,99728.35
2018-03-25T07:08:30.610Z,99724.38
2018-03-25T07:10:56.950Z,99730.20
2018-03-25T07:13:23.309Z,99737.72
2018-03-25T07:15:49.654Z,99731.05
2018-03-25T07:18:15.998Z,99731.98
2018-03-25T07:20:42.689Z,99742.95
2018-03-25T07:23:09.030Z,99741.81
2018-03-25T07:25:35.381Z,99739.83
2018-03-25T07:28:01.749Z,99743.02
2018-03-25T07:30:28.107Z,99750.89
2018-03-25T07:32:54.494Z,99744.37
2018-03-25T07:35:20.889Z,99743.48
2018-03-25T07:37:47.245Z,99741.87
2018-03-25T07:40:13.581Z,99744.05
2018-03-25T07:42:39.937Z,99740.69
2018-03-25T07:45:06.294Z,99745.45
2018-03-25T07:47:32.748Z,99742.66
2018-03-25T07:49:59.185Z,99742.73
2018-03-25T07:52:25.466Z,99740.31
2018-03-25T07:54:51.826Z,99734.81
2018-03-25T07:57:18.230Z,99734.73
2018-03-25T07:59:44.582Z,99739.77
2018-03-25T08:02:10.938Z,99739.23
2018-03-25T08:04:37.561Z,99742.63
2018-03-25T08:07:03.918Z,99738.89
2018-03-25T08:09:30.602Z,99739.01
2018-03-25T08:11:56.954Z,99744.02
2018-03-25T08:14:23.290Z,99757.30
2018-03-25T08:16:49.650Z,99757.52
2018-03-25T08:19:15.982Z,99762.61
2018-03-25T08:21:42.349Z,99765.48
2018-03-25T08:24:08.747Z,99768.66
2018-03-25T08:26:35.178Z,99763.02
2018-03-25T08:29:01.532Z,99760.70
2018-03-25T08:31:27.870Z,99771.94
2018-03-25T08:33:54.409Z,99769.33
2018-03-25T08:36:20.798Z,99771.80
2018-03-25T08:38:47.170Z,99772.47
2018-03-25T08:41:13.542Z,99771.06
2018-03-25T08:43:39.877Z,99776.05
2018-03-25T08:46:06.262Z,99777.29
2018-03-25T08:48:32.634Z,99769.94
2018-03-25T08:50:59.150Z,99762.89
2018-03-25T08:53:25.501Z,99761.24
2018-03-25T08:55:51.858Z,99763.80
2018-03-25T08:58:18.288Z,99761.62
2018-03-25T09:00:44.662Z,99762.39
2018-03-25T09:03:11.134Z,99757.43
2018-03-25T09:05:37.525Z,99752.73
2018-03-25T09:08:03.894Z,99752.96
2018-03-25T09:10:30.238Z,99759.55
2018-03-25T09:12:56.626Z,99765.80
2018-03-25T09:15:23.008Z,99766.73
2018-03-25T09:17:50.622Z,99758.93
2018-03-25T09:20:17.697Z,99750.72
2018-03-25T09:22:44.113Z,99759.90
2018-03-25T09:25:10.487Z,99755.03
2018-03-25T09:27:36.900Z,99758.59
2018-03-25T09:30:03.313Z,99761.47
2018-03-25T09:32:29.686Z,99764.78
2018-03-25T09:34:56.038Z,99770.45
2018-03-25T09:37:22.401Z,99764.63
2018-03-25T09:39:48.770Z,99759.40
2018-03-25T09:42:15.139Z,99753.73
2018-03-25T09:44:41.517Z,99743.42
2018-03-25T09:47:07.853Z,99748.38
2018-03-25T09:49:34.266Z,99751.73
2018-03-25T09:52:00.618Z,99747.71
2018-03-25T09:54:26.970Z,99753.62
2018-03-25T09:56:53.309Z,99744.84
2018-03-25T09:59:19.686Z,99745.97
2018-03-25T10:01:51.990Z,99753.36
2018-03-25T10:04:18.443Z,99757.64
2018-03-25T10:06:44.831Z,99758.49
2018-03-25T10:09:11.213Z,99760.95
2018-03-25T10:11:37.564Z,99770.02
2018-03-25T10:14:03.953Z,99759.32
2018-03-25T10:16:30.311Z,99758.98
2018-03-25T10:18:56.693Z,99760.02
2018-03-25T10:21:23.045Z,99762.30
2018-03-25T10:23:49.405Z,99761.98
2018-03-25T10:26:15.761Z,99777.98
2018-03-25T10:28:42.127Z,99775.31
2018-03-25T10:31:08.475Z,99762.48
2018-03-25T10:33:34.865Z,99765.61
2018-03-25T10:36:01.257Z,99766.77
2018-03-25T10:38:27.678Z,99756.27
2018-03-25T10:40:54.138Z,99755.45
2018-03-25T10:43:20.526Z,99745.36
2018-03-25T10:45:46.923Z,99747.30
2018-03-25T10:48:13.531Z,99738.77
2018-03-25T10:50:40.029Z,99741.51
2018-03-25T10:53:06.384Z,99741.48
2018-03-25T10:55:32.739Z,99743.48
2018-03-25T10:57:59.083Z,99748.45
2018-03-25T11:00:25.462Z,99741.48
2018-03-25T11:02:51.851Z,99737.95
2018-03-25T11:05:18.198Z,99740.39
2018-03-25T11:07:44.639Z,99737.78
2018-03-25T11:10:11.041Z,99736.77
2018-03-25T11:12:37.403Z,99733.77
2018-03-25T11:15:03.826Z,99731.55
2018-03-25T11:17:30.186Z,99730.19
2018-03-25T11:19:56.546Z,99724.22
2018-03-25T11:22:22.968Z,99722.56
2018-03-25T11:24:49.298Z,99721.76
2018-03-25T11:27:15.661Z,99721.16
2018-03-25T11:29:42.001Z,99722.88
2018-03-25T11:32:08.390Z,99715.09
2018-03-25T11:34:34.728Z,99709.58
2018-03-25T11:37:01.089Z,99701.41
2018-03-25T11:39:27.528Z,99705.81
2018-03-25T11:41:53.885Z,99713.33
2018-03-25T11:44:20.234Z,99715.80
2018-03-25T11:46:46.658Z,99710.14
2018-03-25T11:49:13.086Z,99707.83
2018-03-25T11:51:39.429Z,99706.95
2018-03-25T11:54:05.927Z,99712.94
2018-03-25T11:56:32.298Z,99705.16
2018-03-25T11:58:58.650Z,99709.38
2018-03-25T12:01:25.002Z,99715.39
2018-03-25T12:03:51.338Z,99706.48
2018-03-25T12:06:17.717Z,99710.31
2018-03-25T12:08:44.075Z,99719.57
2018-03-25T12:11:10.472Z,99716.83
2018-03-25T12:13:36.845Z,99705.99
2018-03-25T12:16:03.213Z,99702.60
2018-03-25T12:18:29.605Z,99704.23
2018-03-25T12:20:55.945Z,99708.12
2018-03-25T12:23:22.274Z,99697.64
2018-03-25T12:25:48.638Z,99703.36
2018-03-25T12:28:14.991Z,99697.05
2018-03-25T12:30:41.377Z,99698.71
2018-03-25T12:33:07.722Z,99691.32
2018-03-25T12:35:34.061Z,99686.86
2018-03-25T12:38:00.430Z,99687.91
2018-03-25T12:40:26.817Z,99686.50
2018-03-25T12:42:53.180Z,99694.19
2018-03-25T12:45:19.527Z,99694.22
2018-03-25T12:47:46.027Z,99703.30
2018-03-25T12:50:12.418Z,99699.25
2018-03-25T12:52:38.768Z,99707.02
2018-03-25T12:55:05.215Z,99713.93
2018-03-25T12:57:31.550Z,99707.57
2018-03-25T12:59:57.915Z,99706.16
2018-03-25T13:02:24.251Z,99700.78
2018-03-25T13:04:50.622Z,99703.76
2018-03-25T13:07:16.969Z,99706.38
2018-03-25T13:09:43.317Z,99697.73
2018-03-25T13:12:09.830Z,99690.64
2018-03-25T13:14:36.190Z,99686.63
2018-03-25T13:17:02.593Z,99686.03
2018-03-25T13:19:29.057Z,99690.64
2018-03-25T13:21:55.414Z,99690.89
2018-03-25T13:24:21.758Z,99688.87
2018-03-25T13:26:48.090Z,99694.66
2018-03-25T13:29:14.463Z,99689.91
2018-03-25T13:31:40.806Z,99685.82
2018-03-25T13:34:07.141Z,99686.68
2018-03-25T13:36:33.553Z,99683.05
2018-03-25T13:38:59.938Z,99683.81
2018-03-25T13:41:26.294Z,99686.70
2018-03-25T13:43:52.617Z,99686.16
2018-03-25T13:46:19.005Z,99683.45
2018-03-25T13:48:45.374Z,99690.13
2018-03-25T13:51:11.729Z,99680.28
2018-03-25T13:53:38.119Z,99677.41
2018-03-25T13:56:04.504Z,99679.06
2018-03-25T13:58:31.077Z,99678.63
2018-03-25T14:00:57.423Z,99682.09
2018-03-25T14:03:23.777Z,99685.50
2018-03-25T14:05:50.126Z,99680.29
2018-03-25T14:08:16.476Z,99689.05
2018-03-25T14:10:42.869Z,99684.98
2018-03-25T14:13:09.218Z,99677.88
2018-03-25T14:15:35.571Z,99679.15
2018-03-25T14:18:02.023Z,99680.58
2018-03-25T14:20:28.374Z,99680.79
2018-03-25T14:22:54.723Z,99681.00
2018-03-25T14:25:21.070Z,99678.81
2018-03-25T14:27:47.437Z,99678.53
2018-03-25T14:30:13.798Z,99674.81
2018-03-25T14:32:40.542Z,99673.78
2018-03-25T14:35:06.902Z,99667.33
2018-03-25T14:37:33.242Z,99669.69
2018-03-25T14:39:59.598Z,99664.84
2018-03-25T14:42:25.978Z,99661.53
2018-03-25T14:44:52.352Z,99659.66
2018-03-25T14:47:18.732Z,99655.09
2018-03-25T14:49:45.123Z,99662.89
2018-03-25T14:52:11.474Z,99663.19
2018-03-25T14:54:37.825Z,99666.61
2018-03-25T14:57:04.238Z,99661.52
2018-03-25T14:59:30.631Z,99664.63
2018-03-25T15:01:57.103Z,99669.00
2018-03-25T15:04:23.449Z,99669.64
2018-03-25T15:06:49.805Z,99665.97
2018-03-25T15:09:16.153Z,99667.25
2018-03-25T15:11:42.530Z,99665.48
2018-03-25T15:14:08.918Z,99666.34
2018-03-25T15:16:35.647Z,99663.42
2018-03-25T15:19:02.018Z,99661.56
2018-03-25T15:21:28.414Z,99655.44
2018-03-25T15:23:54.846Z,99649.44
2018-03-25T15:26:21.218Z,99661.75
2018-03-25T15:28:47.650Z,99660.10
2018-03-25T15:31:14.174Z,99662.23
2018-03-25T15:33:40.635Z,99659.59
2018-03-25T15:36:06.990Z,99661.89
2018-03-25T15:38:33.391Z,99676.09
2018-03-25T15:40:59.810Z,99679.57
2018-03-25T15:43:26.312Z,99683.10
2018-03-25T15:45:53.645Z,99683.69
2018-03-25T15:48:20.059Z,99687.45
2018-03-25T15:50:46.406Z,99684.82
2018-03-25T15:53:12.850Z,99684.44
2018-03-25T15:55:39.210Z,99686.31
2018-03-25T15:58:05.565Z,99682.96
2018-03-25T16:00:31.941Z,99685.16
2018-03-25T16:02:58.450Z,99675.67
2018-03-25T16:05:24.809Z,99669.55
2018-03-25T16:07:51.221Z,99673.18
2018-03-25T16:10:17.572Z,99672.91
2018-03-25T16:12:43.931Z,99666.59
2018-03-25T16:15:10.262Z,99662.20
2018-03-25T16:17:36.621Z,99662.34
2018-03-25T16:20:03.053Z,99668.58
2018-03-25T16:22:29.523Z,99668.44
2018-03-25T16:24:55.880Z,99664.88
2018-03-25T16:27:22.211Z,99662.98
2018-03-25T16:29:48.648Z,99669.56
2018-03-25T16:32:15.018Z,99673.45
2018-03-25T16:34:41.369Z,99674.86
2018-03-25T16:37:07.850Z,99680.37
2018-03-25T16:39:34.208Z,99681.37
2018-03-25T16:42:00.594Z,99679.36
2018-03-25T16:44:26.950Z,99680.82
2018-03-25T16:46:53.317Z,99673.05
2018-03-25T16:49:19.722Z,99677.27
2018-03-25T16:51:46.129Z,99669.89
2018-03-25T16:54:12.486Z,99673.56
2018-03-25T16:56:38.834Z,99677.91
2018-03-25T16:59:05.242Z,99684.36
2018-03-25T17:01:31.598Z,99680.87
2018-03-25T17:03:57.946Z,99697.91
2018-03-25T17:06:24.346Z,99689.43
2018-03-25T17:08:50.761Z,99697.34
2018-03-25T17:11:17.126Z,99696.89
2018-03-25T17:13:43.497Z,99707.52
2018-03-25T17:16:09.854Z,99715.42
2018-03-25T17:18:36.392Z,99711.22
2018-03-25T17:21:02.810Z,99706.16
2018-03-25T17:23:29.210Z,99706.31
2018-03-25T17:25:55.565Z,99712.56
2018-03-25T17:28:21.931Z,99712.38
2018-03-25T17:30:48.287Z,99702.50
2018-03-25T17:33:14.638Z,99704.54
2018-03-25T17:35:41.001Z,99706.23
2018-03-25T17:38:07.422Z,99711.13
2018-03-25T17:40:33.911Z,99719.78
2018-03-25T17:43:00.344Z,99713.89
2018-03-25T17:45:26.698Z,99713.87
2018-03-25T17:47:53.076Z,99715.06
2018-03-25T17:50:19.454Z,99717.05
2018-03-25T17:52:45.918Z,99708.62
2018-03-25T17:55:12.286Z,99713.19
2018-03-25T17:57:38.638Z,99714.24
2018-03-25T18:00:05.058Z,99711.02
2018-03-25T18:02:31.405Z,99706.20
2018-03-25T18:04:57.904Z,99712.09
2018-03-25T18:07:24.398Z,99699.78
2018-03-25T18:09:50.874Z,99695.85
2018-03-25T18:12:17.238Z,99699.41
2018-03-25T18:14:43.640Z,99709.63
2018-03-25T18:17:33.459Z,99706.78
2018-03-25T18:19:36.407Z,99707.78
2018-03-25T18:22:02.866Z,99701.94
2018-03-25T18:24:29.324Z,99708.69
2018-03-25T18:26:55.658Z,99716.16
2018-03-25T18:29:22.073Z,99708.70
2018-03-25T18:31:48.487Z,99713.73
2018-03-25T18:34:14.919Z,99721.73
2018-03-25T18:36:41.446Z,99716.89
2018-03-25T18:39:07.807Z,99720.11
2018-03-25T18:41:34.154Z,99719.37
2018-03-25T18:44:00.717Z,99716.58
2018-03-25T18:46:27.068Z,99723.59
2018-03-25T18:48:53.437Z,99720.45
2018-03-25T18:51:19.953Z,99713.84
2018-03-25T18:53:46.342Z,99721.64
2018-03-25T18:56:12.958Z,99725.73
2018-03-25T18:58:39.467Z,99721.77
2018-03-25T19:01:05.856Z,99720.88
2018-03-25T19:03:32.238Z,99720.23
2018-03-25T19:05:58.590Z,99719.69
2018-03-25T19:08:25.013Z,99710.94
2018-03-25T19:10:51.414Z,99715.91
2018-03-25T19:13:17.801Z,99712.84
2018-03-25T19:15:44.190Z,99724.09
2018-03-25T19:18:10.582Z,99722.04
2018-03-25T19:20:36.961Z,99722.88
2018-03-25T19:23:03.368Z,99723.09
2018-03-25T19:25:29.696Z,99717.34
2018-03-25T19:27:56.043Z,99718.52
2018-03-25T19:30:22.441Z,99712.32
2018-03-25T19:32:48.806Z,99710.95
2018-03-25T19:35:15.938Z,99712.56
2018-03-25T19:37:42.330Z,99710.25
2018-03-25T19:40:08.742Z,99711.73
2018-03-25T19:42:35.094Z,99710.16
2018-03-25T19:45:01.646Z,99707.38
2018-03-25T19:47:28.070Z,99703.46
2018-03-25T19:49:54.458Z,99704.03
2018-03-25T19:52:20.867Z,99698.33
2018-03-25T19:54:47.226Z,99701.01
2018-03-25T19:57:13.606Z,99703.46
2018-03-25T19:59:39.978Z,99698.39
2018-03-25T20:02:06.331Z,99696.14
2018-03-25T20:04:32.677Z,99691.57
2018-03-25T20:06:59.011Z,99694.09
2018-03-25T20:09:25.371Z,99698.52
2018-03-25T20:11:51.738Z,99694.23
2018-03-25T20:14:18.173Z,99694.52
2018-03-25T20:16:44.521Z,99683.45
2018-03-25T20:19:10.862Z,99673.53
2018-03-25T20:21:37.262Z,99680.20
2018-03-25T20:24:03.681Z,99674.94
2018-03-25T20:26:30.010Z,99671.45
2018-03-25T20:28:56.406Z,99664.48
2018-03-25T20:31:22.762Z,99669.02
2018-03-25T20:33:49.126Z,99667.55
2018-03-25T20:36:15.513Z,99666.02
2018-03-25T20:38:41.857Z,99671.13
2018-03-25T20:41:08.286Z,99669.41
2018-03-25T20:43:34.714Z,99667.94
2018-03-25T20:46:01.048Z,99668.91
2018-03-25T20:48:27.638Z,99664.50
2018-03-25T20:50:54.022Z,99659.61
2018-03-25T20:53:20.392Z,99657.39
2018-03-25T20:55:46.782Z,99651.17
2018-03-25T20:58:13.117Z,99647.23
2018-03-25T21:00:39.682Z,99643.73
2018-03-25T21:03:06.083Z,99643.62
2018-03-25T21:05:32.431Z,99639.62
2018-03-25T21:07:58.825Z,99631.94
2018-03-25T21:10:25.177Z,99613.04
2018-03-25T21:12:51.527Z,99617.03
2018-03-25T21:15:17.934Z,99602.42
2018-03-25T21:17:44.346Z,99598.94
2018-03-25T21:20:10.927Z,99600.55
2018-03-25T21:22:37.317Z,99595.31
2018-03-25T21:25:03.721Z,99600.03
2018-03-25T21:27:30.110Z,99596.86
2018-03-25T21:29:56.541Z,99590.34
2018-03-25T21:32:23.014Z,99578.50
2018-03-25T21:34:49.378Z,99580.70
2018-03-25T21:37:15.737Z,99577.64
2018-03-25T21:39:42.102Z,99569.00
2018-03-25T21:42:08.438Z,99567.63
2018-03-25T21:44:34.793Z,99560.65
2018-03-25T21:47:01.241Z,99561.79
2018-03-25T21:49:27.637Z,99556.04
2018-03-25T21:51:54.065Z,99544.77
2018-03-25T21:54:20.457Z,99544.34
2018-03-25T21:56:46.812Z,99545.18
2018-03-25T21:59:13.166Z,99538.55
2018-03-25T22:01:39.514Z,99536.28
2018-03-25T22:04:05.896Z,99530.66
2018-03-25T22:06:32.249Z,99536.69
2018-03-25T22:08:58.614Z,99530.69
2018-03-25T22:11:24.989Z,99529.17
2018-03-25T22:13:51.333Z,99520.52
2018-03-25T22:16:17.670Z,99518.70
2018-03-25T22:18:56.114Z,99522.14
2018-03-25T22:21:22.465Z,99514.73
2018-03-25T22:23:48.817Z,99509.80
2018-03-25T22:26:15.218Z,99509.53
2018-03-25T22:28:41.562Z,99504.28
2018-03-25T22:31:07.916Z,99494.23
2018-03-25T22:33:34.269Z,99489.00
2018-03-25T22:36:00.600Z,99488.92
2018-03-25T22:38:26.965Z,99486.75
2018-03-25T22:40:53.341Z,99491.98
2018-03-25T22:43:19.714Z,99484.27
2018-03-25T22:45:46.066Z,99482.05
2018-03-25T22:48:12.411Z,99485.39
2018-03-25T22:50:38.782Z,99481.20
2018-03-25T22:53:05.162Z,99480.77
2018-03-25T22:55:31.509Z,99486.16
2018-03-25T22:57:57.843Z,99483.17
2018-03-25T23:00:24.250Z,99475.98
2018-03-25T23:02:50.686Z,99473.45
2018-03-25T23:05:17.045Z,99468.09
2018-03-25T23:07:43.438Z,99467.32
2018-03-25T23:10:09.800Z,99463.28
2018-03-25T23:12:36.198Z,99463.41
2018-03-25T23:15:02.682Z,99454.92
2018-03-25T23:17:29.046Z,99452.60
2018-03-25T23:19:55.430Z,99447.79
2018-03-25T23:22:21.781Z,99449.23
2018-03-25T23:24:48.182Z,99442.20
2018-03-25T23:27:14.754Z,99442.42
2018-03-25T23:29:41.126Z,99431.84
2018-03-25T23:32:07.554Z,99428.90
2018-03-25T23:34:33.958Z,99428.64
2018-03-25T23:37:00.347Z,99422.81
2018-03-25T23:39:26.706Z,99417.09
2018-03-25T23:41:53.046Z,99417.23
2018-03-25T23:44:19.422Z,99416.00
2018-03-25T23:46:45.786Z,99405.66
2018-03-25T23:49:12.141Z,99411.21
2018-03-25T23:51:38.558Z,99402.66
2018-03-25T23:54:04.971Z,99403.44
2018-03-25T23:56:31.349Z,99406.86
2018-03-25T23:58:57.747Z,99402.88
